createdAt,value
2022-12-11T00:01:46.142Z,-0.77
2022-12-11T00:04:13.201Z,-0.66
2022-12-11T00:06:40.328Z,-0.67
2022-12-11T00:09:07.263Z,-0.72
2022-12-11T00:11:34.292Z,-0.66
2022-12-11T00:14:01.398Z,-0.86
2022-12-11T00:16:28.490Z,-0.62
2022-12-11T00:18:55.808Z,-0.64
2022-12-11T00:21:22.949Z,-0.76
2022-12-11T00:23:50.220Z,-0.65
2022-12-11T00:26:17.807Z,-0.69
2022-12-11T00:28:45.335Z,-0.69
2022-12-11T00:31:19.704Z,-0.80
2022-12-11T00:33:49.428Z,-0.69
2022-12-11T00:36:20.235Z,-0.66
2022-12-11T00:38:48.963Z,-0.75
2022-12-11T00:41:16.354Z,-0.92
2022-12-11T00:43:43.517Z,-0.72
2022-12-11T00:46:11.139Z,-0.87
2022-12-11T00:48:38.238Z,-0.80
2022-12-11T00:51:05.910Z,-0.71
2022-12-11T00:53:33.467Z,-0.72
2022-12-11T00:56:00.587Z,-0.89
2022-12-11T00:58:27.835Z,-0.69
2022-12-11T01:00:54.891Z,-0.75
2022-12-11T01:03:22.041Z,-0.83
2022-12-11T01:05:54.201Z,-0.86
2022-12-11T01:08:21.744Z,-0.69
2022-12-11T01:10:49.049Z,-0.69
2022-12-11T01:13:16.601Z,-0.65
2022-12-11T01:15:45.816Z,-0.71
2022-12-11T01:18:15.257Z,-0.69
2022-12-11T01:20:43.884Z,-0.63
2022-12-11T01:23:13.353Z,-0.59
2022-12-11T01:25:41.942Z,-0.57
2022-12-11T01:28:09.204Z,-0.57
2022-12-11T01:30:37.122Z,-0.58
2022-12-11T01:33:04.234Z,-0.64
2022-12-11T01:35:31.385Z,-0.72
2022-12-11T01:37:59.448Z,-0.58
2022-12-11T01:40:26.920Z,-0.67
2022-12-11T01:42:54.139Z,-0.62
2022-12-11T01:45:32.878Z,-0.69
2022-12-11T01:48:11.145Z,-0.65
2022-12-11T01:50:53.681Z,-0.76
2022-12-11T01:53:25.486Z,-0.61
2022-12-11T01:55:55.584Z,-0.79
2022-12-11T01:58:27.799Z,-0.90
2022-12-11T02:00:55.913Z,-0.79
2022-12-11T02:03:23.221Z,-0.70
2022-12-11T02:05:50.445Z,-0.72
2022-12-11T02:08:18.092Z,-0.89
2022-12-11T02:11:10.832Z,-0.71
2022-12-11T02:14:05.457Z,-0.73
2022-12-11T02:16:52.625Z,-0.70
2022-12-11T02:19:41.042Z,-0.72
2022-12-11T02:22:13.938Z,-0.81
2022-12-11T02:24:57.723Z,-0.73
2022-12-11T02:27:36.526Z,-0.75
2022-12-11T02:30:09.331Z,-0.73
2022-12-11T02:32:43.495Z,-0.86
2022-12-11T02:35:16.252Z,-0.68
2022-12-11T02:37:46.695Z,-0.70
2022-12-11T02:40:15.421Z,-0.63
2022-12-11T02:42:44.522Z,-0.65
2022-12-11T02:45:13.676Z,-0.73
2022-12-11T02:47:45.016Z,-0.67
2022-12-11T02:50:16.066Z,-0.64
2022-12-11T02:52:44.690Z,-0.62
2022-12-11T02:55:15.139Z,-0.66
2022-12-11T02:57:58.257Z,-0.61
2022-12-11T03:00:25.192Z,-0.64
2022-12-11T03:02:52.497Z,-0.63
2022-12-11T03:05:19.582Z,-0.64
2022-12-11T03:07:46.776Z,-0.93
2022-12-11T03:10:18.954Z,-0.67
2022-12-11T03:12:53.393Z,-0.69
2022-12-11T03:15:27.443Z,-0.85
2022-12-11T03:18:19.068Z,-0.63
2022-12-11T03:21:06.346Z,-0.62
2022-12-11T03:23:54.940Z,-0.58
2022-12-11T03:26:24.859Z,-0.69
2022-12-11T03:29:04.965Z,-0.60
2022-12-11T03:31:40.537Z,-0.90
2022-12-11T03:34:19.867Z,-0.73
2022-12-11T03:36:49.242Z,-0.65
2022-12-11T03:39:22.420Z,-0.68
2022-12-11T03:41:51.955Z,-0.63
2022-12-11T03:44:20.678Z,-0.63
2022-12-11T03:46:49.308Z,-0.65
2022-12-11T03:49:26.833Z,-0.64
2022-12-11T03:51:56.652Z,-0.73
2022-12-11T03:54:25.059Z,-0.81
2022-12-11T03:56:55.720Z,-0.73
2022-12-11T03:59:23.011Z,-0.71
2022-12-11T04:01:50.493Z,-0.71
2022-12-11T04:04:17.601Z,-0.76
2022-12-11T04:06:44.658Z,-0.85
2022-12-11T04:09:11.857Z,-0.87
2022-12-11T04:11:39.692Z,-0.77
2022-12-11T04:14:29.133Z,-0.72
2022-12-11T04:16:57.259Z,-0.74
2022-12-11T04:19:43.820Z,-0.71
2022-12-11T04:22:33.933Z,-0.71
2022-12-11T04:25:02.799Z,-0.72
2022-12-11T04:27:49.097Z,-0.77
2022-12-11T04:30:22.464Z,-0.75
2022-12-11T04:32:50.197Z,-0.86
2022-12-11T04:35:18.107Z,-0.82
2022-12-11T04:37:45.095Z,-0.69
2022-12-11T04:40:15.021Z,-0.68
2022-12-11T04:42:42.152Z,-0.76
2022-12-11T04:45:10.231Z,-0.71
2022-12-11T04:47:39.279Z,-0.70
2022-12-11T04:50:09.192Z,-0.65
2022-12-11T04:52:36.833Z,-0.70
2022-12-11T04:55:05.822Z,-0.76
2022-12-11T04:57:32.784Z,-0.80
2022-12-11T05:00:00.223Z,-0.71
2022-12-11T05:02:27.327Z,-0.69
2022-12-11T05:04:54.273Z,-0.69
2022-12-11T05:07:21.352Z,-0.75
2022-12-11T05:09:48.380Z,-0.82
2022-12-11T05:12:15.291Z,-0.74
2022-12-11T05:14:42.283Z,-0.74
2022-12-11T05:17:09.287Z,-0.94
2022-12-11T05:19:36.333Z,-0.78
2022-12-11T05:22:03.307Z,-0.77
2022-12-11T05:24:30.379Z,-0.80
2022-12-11T05:26:57.312Z,-0.86
2022-12-11T05:29:24.303Z,-0.79
2022-12-11T05:31:51.500Z,-0.77
2022-12-11T05:34:18.540Z,-0.81
2022-12-11T05:36:45.656Z,-1.09
2022-12-11T05:39:12.799Z,-0.82
2022-12-11T05:41:40.394Z,-0.81
2022-12-11T05:44:07.362Z,-0.85
2022-12-11T05:46:34.440Z,-1.06
2022-12-11T05:49:02.706Z,-0.80
2022-12-11T05:51:30.874Z,-0.96
2022-12-11T05:53:58.375Z,-0.80
2022-12-11T05:56:34.201Z,-0.97
2022-12-11T05:59:02.490Z,-0.81
2022-12-11T06:01:39.109Z,-1.01
2022-12-11T06:04:07.352Z,-0.84
2022-12-11T06:06:35.330Z,-0.83
2022-12-11T06:09:04.345Z,-1.11
2022-12-11T06:11:34.330Z,-0.89
2022-12-11T06:14:03.231Z,-0.92
2022-12-11T06:16:30.272Z,-0.86
2022-12-11T06:18:58.607Z,-1.03
2022-12-11T06:21:32.184Z,-0.88
2022-12-11T06:24:02.292Z,-0.94
2022-12-11T06:26:30.015Z,-0.97
2022-12-11T06:28:57.144Z,-1.06
2022-12-11T06:31:25.688Z,-0.94
2022-12-11T06:33:52.841Z,-0.92
2022-12-11T06:36:22.187Z,-1.11
2022-12-11T06:38:49.905Z,-1.02
2022-12-11T06:41:17.453Z,-1.14
2022-12-11T06:43:45.272Z,-0.92
2022-12-11T06:46:16.660Z,-0.90
2022-12-11T06:48:44.573Z,-1.09
2022-12-11T06:51:14.729Z,-0.99
2022-12-11T06:53:42.441Z,-0.89
2022-12-11T06:56:15.437Z,-0.88
2022-12-11T06:58:44.226Z,-0.99
2022-12-11T07:01:21.724Z,-0.90
2022-12-11T07:03:49.690Z,-0.96
2022-12-11T07:06:17.495Z,-1.91
2022-12-11T07:08:44.728Z,-0.94
2022-12-11T07:11:14.341Z,-1.05
2022-12-11T07:13:45.432Z,-1.02
2022-12-11T07:16:14.854Z,-0.97
2022-12-11T07:18:44.356Z,-1.10
2022-12-11T07:21:13.627Z,-0.88
2022-12-11T07:23:41.479Z,-0.93
2022-12-11T07:26:14.316Z,-0.91
2022-12-11T07:28:42.440Z,-0.99
2022-12-11T07:31:18.991Z,-0.94
2022-12-11T07:33:46.227Z,-0.92
2022-12-11T07:36:14.538Z,-1.02
2022-12-11T07:38:41.541Z,-0.91
2022-12-11T07:41:11.365Z,-0.86
2022-12-11T07:43:38.596Z,-0.88
2022-12-11T07:46:08.912Z,-0.89
2022-12-11T07:48:37.523Z,-0.92
2022-12-11T07:51:17.715Z,-0.90
2022-12-11T07:53:46.941Z,-0.97
2022-12-11T07:56:16.438Z,-0.97
2022-12-11T07:58:44.549Z,-1.07
2022-12-11T08:01:13.777Z,-1.02
2022-12-11T08:03:41.063Z,-1.00
2022-12-11T08:06:08.453Z,-1.02
2022-12-11T08:08:35.538Z,-1.18
2022-12-11T08:11:04.136Z,-0.89
2022-12-11T08:13:32.040Z,-1.15
2022-12-11T08:15:59.809Z,-1.11
2022-12-11T08:18:26.894Z,-0.86
2022-12-11T08:20:56.357Z,-1.15
2022-12-11T08:23:23.361Z,-0.93
2022-12-11T08:25:50.380Z,-1.05
2022-12-11T08:28:17.480Z,-0.94
2022-12-11T08:30:45.037Z,-1.01
2022-12-11T08:33:14.743Z,-0.99
2022-12-11T08:35:42.391Z,-1.11
2022-12-11T08:38:09.698Z,-1.48
2022-12-11T08:40:36.893Z,-0.97
2022-12-11T08:43:04.168Z,-1.02
2022-12-11T08:45:33.732Z,-1.21
2022-12-11T08:48:02.595Z,-0.97
2022-12-11T08:50:30.002Z,-1.15
2022-12-11T08:53:00.016Z,-0.93
2022-12-11T08:55:27.327Z,-1.12
2022-12-11T08:57:54.332Z,-1.20
2022-12-11T09:00:21.819Z,-1.03
2022-12-11T09:02:49.030Z,-0.98
2022-12-11T09:05:16.309Z,-1.00
2022-12-11T09:07:43.575Z,-1.13
2022-12-11T09:10:10.743Z,-0.99
2022-12-11T09:12:38.105Z,-1.05
2022-12-11T09:15:05.930Z,-1.11
2022-12-11T09:17:35.532Z,-0.99
2022-12-11T09:20:03.288Z,-0.96
2022-12-11T09:22:33.617Z,-1.02
2022-12-11T09:25:03.702Z,-1.24
2022-12-11T09:27:31.203Z,-1.12
2022-12-11T09:29:58.197Z,-1.00
2022-12-11T09:32:25.251Z,-1.07
2022-12-11T09:34:52.245Z,-1.24
2022-12-11T09:37:22.315Z,-1.08
2022-12-11T09:39:49.376Z,-1.16
2022-12-11T09:42:38.707Z,-1.04
2022-12-11T09:45:11.170Z,-1.20
2022-12-11T09:47:44.328Z,-0.95
2022-12-11T09:50:23.369Z,-1.32
2022-12-11T09:53:13.812Z,-1.07
2022-12-11T09:55:49.470Z,-1.02
2022-12-11T09:58:43.031Z,-1.26
2022-12-11T10:01:18.626Z,-1.22
2022-12-11T10:04:07.143Z,-0.99
2022-12-11T10:07:02.434Z,-1.23
2022-12-11T10:09:56.090Z,-0.98
2022-12-11T10:12:45.943Z,-1.03
2022-12-11T10:15:25.633Z,-1.19
2022-12-11T10:18:04.674Z,-1.11
2022-12-11T10:20:39.266Z,-1.08
2022-12-11T10:23:15.441Z,-1.07
2022-12-11T10:25:50.983Z,-1.06
2022-12-11T10:28:20.495Z,-1.14
2022-12-11T10:30:56.615Z,-1.11
2022-12-11T10:33:44.333Z,-1.29
2022-12-11T10:36:18.113Z,-1.41
2022-12-11T10:38:46.984Z,-1.08
2022-12-11T10:41:24.779Z,-1.17
2022-12-11T10:43:53.489Z,-1.14
2022-12-11T10:46:26.388Z,-1.16
2022-12-11T10:48:57.526Z,-1.17
2022-12-11T10:51:32.254Z,-1.17
2022-12-11T10:54:17.609Z,-1.19
2022-12-11T10:56:48.722Z,-1.25
2022-12-11T10:59:49.876Z,-1.23
2022-12-11T11:02:28.560Z,-1.28
2022-12-11T11:04:58.569Z,-1.54
2022-12-11T11:07:34.828Z,-1.51
2022-12-11T11:10:17.869Z,-1.46
2022-12-11T11:12:48.418Z,-1.52
2022-12-11T11:15:19.999Z,-1.54
2022-12-11T11:17:55.784Z,-1.37
2022-12-11T11:20:27.135Z,-1.39
2022-12-11T11:22:57.921Z,-1.42
2022-12-11T11:25:27.808Z,-1.45
2022-12-11T11:28:01.164Z,-1.46
2022-12-11T11:30:31.301Z,-1.46
2022-12-11T11:33:19.598Z,-1.45
2022-12-11T11:35:58.906Z,-1.46
2022-12-11T11:38:52.380Z,-1.49
2022-12-11T11:41:25.643Z,-1.58
2022-12-11T11:43:57.957Z,-1.49
2022-12-11T11:46:43.593Z,-1.50
2022-12-11T11:49:23.197Z,-1.62
2022-12-11T11:52:01.350Z,-1.53
2022-12-11T11:54:39.787Z,-1.66
2022-12-11T11:57:29.743Z,-1.55
2022-12-11T12:00:13.362Z,-1.68
2022-12-11T12:02:41.637Z,-1.55
2022-12-11T12:05:15.956Z,-1.85
2022-12-11T12:08:00.287Z,-1.60
2022-12-11T12:10:44.461Z,-1.56
2022-12-11T12:13:49.113Z,-1.60
2022-12-11T12:16:52.773Z,-1.69
2022-12-11T12:19:42.721Z,-1.58
2022-12-11T12:22:28.230Z,-1.89
2022-12-11T12:25:24.906Z,-1.57
2022-12-11T12:28:31.902Z,-1.59
2022-12-11T12:31:33.343Z,-1.60
2022-12-11T12:34:35.514Z,-1.59
2022-12-11T12:37:18.005Z,-1.57
2022-12-11T12:40:17.288Z,-1.55
2022-12-11T12:42:44.225Z,-1.55
2022-12-11T12:45:23.958Z,-1.53
2022-12-11T12:47:53.617Z,-1.55
2022-12-11T12:50:36.993Z,-1.51
2022-12-11T12:53:06.581Z,-1.56
2022-12-11T12:55:35.992Z,-1.51
2022-12-11T12:58:09.340Z,-1.54
2022-12-11T13:00:44.171Z,-1.50
2022-12-11T13:03:17.471Z,-1.52
2022-12-11T13:06:08.441Z,-1.68
2022-12-11T13:09:20.903Z,-1.52
2022-12-11T13:11:58.084Z,-1.66
2022-12-11T13:14:34.273Z,-1.52
2022-12-11T13:17:22.484Z,-1.59
2022-12-11T13:19:53.216Z,-1.55
2022-12-11T13:22:25.031Z,-1.58
2022-12-11T13:25:17.110Z,-1.63
2022-12-11T13:27:44.892Z,-1.68
2022-12-11T13:30:15.145Z,-1.66
2022-12-11T13:32:57.391Z,-1.67
2022-12-11T13:35:25.341Z,-1.67
2022-12-11T13:37:59.917Z,-1.73
2022-12-11T13:40:33.548Z,-1.66
2022-12-11T13:43:05.862Z,-1.60
2022-12-11T13:45:43.523Z,-1.62
2022-12-11T13:48:21.541Z,-1.77
2022-12-11T13:50:51.107Z,-1.61
2022-12-11T13:53:20.312Z,-1.70
2022-12-11T13:55:57.398Z,-1.62
2022-12-11T13:58:25.083Z,-1.84
2022-12-11T14:00:59.824Z,-1.62
2022-12-11T14:03:31.278Z,-1.64
2022-12-11T14:05:59.724Z,-1.78
2022-12-11T14:08:34.261Z,-1.66
2022-12-11T14:11:02.154Z,-1.56
2022-12-11T14:13:36.564Z,-1.57
2022-12-11T14:16:04.618Z,-1.71
2022-12-11T14:18:34.113Z,-1.53
2022-12-11T14:21:06.378Z,-1.53
2022-12-11T14:23:35.824Z,-1.71
2022-12-11T14:26:25.473Z,-1.68
2022-12-11T14:28:53.241Z,-1.54
2022-12-11T14:31:37.709Z,-1.47
2022-12-11T14:34:15.832Z,-1.54
2022-12-11T14:36:44.218Z,-1.46
2022-12-11T14:39:21.592Z,-1.49
2022-12-11T14:41:48.505Z,-1.51
2022-12-11T14:44:18.000Z,-1.66
2022-12-11T14:46:52.762Z,-1.42
2022-12-11T14:49:31.677Z,-1.38
2022-12-11T14:52:00.216Z,-1.38
2022-12-11T14:54:36.161Z,-1.34
2022-12-11T14:57:06.777Z,-1.31
2022-12-11T14:59:41.450Z,-1.32
2022-12-11T15:02:33.004Z,-1.28
2022-12-11T15:05:02.163Z,-1.27
2022-12-11T15:07:30.981Z,-1.42
2022-12-11T15:09:57.970Z,-1.49
2022-12-11T15:12:26.038Z,-1.61
2022-12-11T15:15:00.889Z,-1.41
2022-12-11T15:17:33.846Z,-1.25
2022-12-11T15:20:11.932Z,-1.25
2022-12-11T15:22:43.632Z,-1.43
2022-12-11T15:25:26.977Z,-1.35
2022-12-11T15:27:57.926Z,-1.49
2022-12-11T15:30:27.889Z,-1.39
2022-12-11T15:33:03.965Z,-1.21
2022-12-11T15:35:31.366Z,-1.24
2022-12-11T15:37:58.969Z,-1.17
2022-12-11T15:40:34.967Z,-1.30
2022-12-11T15:43:03.606Z,-1.23
2022-12-11T15:45:30.852Z,-1.19
2022-12-11T15:47:59.669Z,-1.16
2022-12-11T15:50:29.416Z,-1.26
2022-12-11T15:52:57.303Z,-1.12
2022-12-11T15:55:27.075Z,-1.14
2022-12-11T15:58:01.373Z,-1.23
2022-12-11T16:00:28.680Z,-1.18
2022-12-11T16:03:00.017Z,-1.20
2022-12-11T16:05:27.672Z,-1.06
2022-12-11T16:07:56.631Z,-1.12
2022-12-11T16:10:23.635Z,-1.05
2022-12-11T16:12:50.833Z,-1.31
2022-12-11T16:15:23.523Z,-1.08
2022-12-11T16:18:09.666Z,-1.15
2022-12-11T16:20:39.286Z,-1.03
2022-12-11T16:23:06.921Z,-1.04
2022-12-11T16:25:34.861Z,-1.25
2022-12-11T16:28:02.085Z,-1.12
2022-12-11T16:30:29.931Z,-1.09
2022-12-11T16:32:57.218Z,-1.00
2022-12-11T16:35:24.406Z,-1.20
2022-12-11T16:37:53.442Z,-1.06
2022-12-11T16:40:24.429Z,-1.00
2022-12-11T16:42:52.143Z,-1.09
2022-12-11T16:45:26.719Z,-0.98
2022-12-11T16:48:03.050Z,-1.17
2022-12-11T16:50:43.161Z,-1.05
2022-12-11T16:53:17.733Z,-1.15
2022-12-11T16:55:45.034Z,-1.19
2022-12-11T16:58:16.445Z,-0.98
2022-12-11T17:00:43.644Z,-1.11
2022-12-11T17:03:10.820Z,-0.97
2022-12-11T17:05:42.809Z,-0.90
2022-12-11T17:08:11.734Z,-0.92
2022-12-11T17:10:40.916Z,-0.94
2022-12-11T17:13:08.206Z,-0.87
2022-12-11T17:15:42.230Z,-0.87
2022-12-11T17:18:13.812Z,-0.88
2022-12-11T17:20:47.886Z,-0.87
2022-12-11T17:23:26.394Z,-0.98
2022-12-11T17:26:05.297Z,-0.92
2022-12-11T17:28:38.163Z,-0.97
2022-12-11T17:31:13.439Z,-1.03
2022-12-11T17:33:42.069Z,-0.86
2022-12-11T17:36:13.463Z,-0.91
2022-12-11T17:38:40.970Z,-0.97
2022-12-11T17:41:09.569Z,-0.89
2022-12-11T17:43:37.008Z,-0.89
2022-12-11T17:46:07.748Z,-0.89
2022-12-11T17:48:37.922Z,-0.89
2022-12-11T17:51:07.755Z,-0.88
2022-12-11T17:53:38.753Z,-1.00
2022-12-11T17:56:08.618Z,-0.86
2022-12-11T17:58:36.408Z,-0.86
2022-12-11T18:01:08.325Z,-0.93
2022-12-11T18:03:37.082Z,-0.83
2022-12-11T18:06:10.643Z,-1.07
2022-12-11T18:08:39.051Z,-0.80
2022-12-11T18:11:11.952Z,-0.80
2022-12-11T18:13:39.632Z,-0.77
2022-12-11T18:16:11.571Z,-0.75
2022-12-11T18:18:40.007Z,-0.93
2022-12-11T18:21:07.224Z,-0.76
2022-12-11T18:23:34.970Z,-0.75
2022-12-11T18:26:02.316Z,-0.71
2022-12-11T18:28:32.205Z,-0.73
2022-12-11T18:31:03.977Z,-0.92
2022-12-11T18:33:32.341Z,-0.74
2022-12-11T18:35:59.529Z,-0.73
2022-12-11T18:38:26.920Z,-0.72
2022-12-11T18:40:54.169Z,-0.77
2022-12-11T18:43:21.294Z,-0.79
2022-12-11T18:45:52.034Z,-0.77
2022-12-11T18:48:19.231Z,-0.68
2022-12-11T18:50:48.120Z,-0.84
2022-12-11T18:53:17.929Z,-0.67
2022-12-11T18:56:05.226Z,-0.70
2022-12-11T19:08:17.551Z,-0.62
2022-12-11T19:17:25.026Z,-0.66
2022-12-11T19:20:19.037Z,-0.59
2022-12-11T19:26:14.168Z,-0.60
2022-12-11T19:28:48.493Z,-0.72
2022-12-11T19:34:33.326Z,-0.56
2022-12-11T19:37:20.250Z,-0.76
2022-12-11T19:39:51.490Z,-0.61
2022-12-11T19:42:20.189Z,-0.68
2022-12-11T19:45:04.148Z,-0.60
2022-12-11T19:47:35.358Z,-0.87
2022-12-11T19:50:16.548Z,-0.58
2022-12-11T19:53:05.559Z,-0.66
2022-12-11T19:55:33.311Z,-0.65
2022-12-11T19:58:00.475Z,-0.66
2022-12-11T20:00:28.687Z,-0.67
2022-12-11T20:02:59.927Z,-0.48
2022-12-11T20:05:27.005Z,-0.45
2022-12-11T20:07:59.491Z,-0.51
2022-12-11T20:10:39.639Z,-0.43
2022-12-11T20:13:07.205Z,-0.64
2022-12-11T20:15:34.538Z,-0.38
2022-12-11T20:18:02.176Z,-0.40
2022-12-11T20:20:30.213Z,-0.36
2022-12-11T20:23:16.838Z,-0.44
2022-12-11T20:26:37.257Z,-0.35
2022-12-11T20:29:16.277Z,-0.33
2022-12-11T20:32:01.358Z,-0.35
2022-12-11T20:34:32.102Z,-0.52
2022-12-11T20:37:00.681Z,-0.32
2022-12-11T20:39:27.741Z,-0.31
2022-12-11T20:41:57.693Z,-0.35
2022-12-11T20:44:47.185Z,-0.36
2022-12-11T20:47:16.286Z,-0.34
2022-12-11T20:49:43.936Z,-0.29
2022-12-11T20:52:10.947Z,-0.23
2022-12-11T20:54:41.112Z,-0.28
2022-12-11T20:57:08.626Z,-0.20
2022-12-11T20:59:36.743Z,-0.25
2022-12-11T21:02:05.884Z,-0.23
2022-12-11T21:04:33.383Z,-0.47
2022-12-11T21:07:01.036Z,-0.23
2022-12-11T21:09:29.459Z,-0.26
2022-12-11T21:12:00.451Z,-0.16
2022-12-11T21:14:29.247Z,-0.34
2022-12-11T21:16:56.503Z,-0.29
2022-12-11T21:19:24.540Z,-0.27
2022-12-11T21:21:52.860Z,-0.12
2022-12-11T21:24:26.890Z,-0.06
2022-12-11T21:26:56.504Z,-0.03
2022-12-11T21:29:25.430Z,-0.27
2022-12-11T21:31:53.325Z,-0.06
2022-12-11T21:34:25.318Z,-0.04
2022-12-11T21:36:57.069Z,0.02
2022-12-11T21:39:26.249Z,0.01
2022-12-11T21:41:53.507Z,0.07
2022-12-11T21:47:09.918Z,-0.08
2022-12-11T21:49:38.194Z,0.09
2022-12-11T21:52:05.718Z,-0.07
2022-12-11T21:54:32.864Z,0.11
2022-12-11T21:57:00.134Z,0.09
2022-12-11T21:59:28.730Z,-0.08
2022-12-11T22:01:55.855Z,-0.04
2022-12-11T22:04:22.918Z,0.14
2022-12-11T22:06:50.141Z,0.07
2022-12-11T22:09:18.145Z,0.18
2022-12-11T22:11:46.447Z,0.08
2022-12-11T22:14:15.633Z,0.23
2022-12-11T22:16:43.567Z,0.14
2022-12-11T22:19:10.850Z,0.23
2022-12-11T22:21:38.279Z,0.21
2022-12-11T22:24:05.579Z,0.14
2022-12-11T22:26:33.153Z,0.15
2022-12-11T22:29:00.200Z,0.19
2022-12-11T22:31:28.351Z,0.28
2022-12-11T22:33:55.727Z,0.17
2022-12-11T22:36:25.433Z,0.36
2022-12-11T22:38:52.844Z,0.38
2022-12-11T22:41:27.921Z,0.39
2022-12-11T22:43:56.068Z,0.33
2022-12-11T22:46:25.603Z,0.43
2022-12-11T22:48:53.898Z,0.47
2022-12-11T22:51:21.577Z,0.50
2022-12-11T22:53:48.979Z,0.52
2022-12-11T22:56:16.693Z,0.53
2022-12-11T22:58:43.838Z,0.42
2022-12-11T23:01:18.403Z,0.52
2022-12-11T23:03:46.558Z,0.43
2022-12-11T23:06:16.093Z,0.62
2022-12-11T23:08:44.145Z,0.61
2022-12-11T23:11:21.519Z,0.56
2022-12-11T23:13:48.633Z,0.46
2022-12-11T23:16:16.108Z,0.45
2022-12-11T23:18:43.372Z,0.70
2022-12-11T23:21:11.635Z,0.68
2022-12-11T23:23:39.068Z,0.73
2022-12-11T23:26:08.834Z,0.64
2022-12-11T23:28:36.357Z,0.52
2022-12-11T23:31:03.654Z,0.78
2022-12-11T23:33:31.113Z,0.78
2022-12-11T23:35:59.482Z,0.75
2022-12-11T23:38:27.833Z,0.73
2022-12-11T23:40:56.150Z,0.69
2022-12-11T23:43:23.429Z,0.90
2022-12-11T23:45:50.569Z,0.80
2022-12-11T23:48:18.022Z,0.92
2022-12-11T23:50:46.167Z,0.87
2022-12-11T23:53:13.320Z,0.82
2022-12-11T23:55:42.648Z,0.73
2022-12-11T23:58:10.937Z,0.91
